createdAt,value
2018-02-23T00:01:01.805Z,60.81
2018-02-23T00:03:30.921Z,60.74
2018-02-23T00:05:59.259Z,60.71
2018-02-23T00:08:27.591Z,60.77
2018-02-23T00:10:55.906Z,60.83
2018-02-23T00:13:24.226Z,61.07
2018-02-23T00:15:52.556Z,61.05
2018-02-23T00:18:20.883Z,60.84
2018-02-23T00:20:49.310Z,60.66
2018-02-23T00:23:17.623Z,60.60
2018-02-23T00:25:46.709Z,60.58
2018-02-23T00:28:15.022Z,60.42
2018-02-23T00:30:43.400Z,60.45
2018-02-23T00:33:11.734Z,60.18
2018-02-23T00:35:40.052Z,60.63
2018-02-23T00:38:08.383Z,60.44
2018-02-23T00:40:36.715Z,60.46
2018-02-23T00:43:05.091Z,60.34
2018-02-23T00:45:33.486Z,60.04
2018-02-23T00:48:01.810Z,60.09
2018-02-23T00:50:30.930Z,60.27
2018-02-23T00:52:59.252Z,60.45
2018-02-23T00:55:27.655Z,60.76
2018-02-23T00:57:55.976Z,60.57
2018-02-23T01:00:24.296Z,60.65
2018-02-23T01:02:52.650Z,60.73
2018-02-23T01:05:20.975Z,60.69
2018-02-23T01:07:50.150Z,61.00
2018-02-23T01:10:18.473Z,60.93
2018-02-23T01:12:46.798Z,61.06
2018-02-23T01:15:15.142Z,61.24
2018-02-23T01:17:43.466Z,61.42
2018-02-23T01:20:11.887Z,61.77
2018-02-23T01:22:40.222Z,61.29
2018-02-23T01:25:08.528Z,61.46
2018-02-23T01:27:36.887Z,61.56
2018-02-23T01:30:05.992Z,61.87
2018-02-23T01:32:34.324Z,61.88
2018-02-23T01:35:02.651Z,61.64
2018-02-23T01:37:30.979Z,61.60
2018-02-23T01:40:00.103Z,61.85
2018-02-23T01:42:28.471Z,62.10
2018-02-23T01:44:56.863Z,62.09
2018-02-23T01:47:25.940Z,62.30
2018-02-23T01:49:54.335Z,62.18
2018-02-23T01:52:23.433Z,62.39
2018-02-23T01:54:52.553Z,62.41
2018-02-23T01:57:20.899Z,62.58
2018-02-23T01:59:49.987Z,62.30
2018-02-23T02:02:18.323Z,62.74
2018-02-23T02:04:46.632Z,62.88
2018-02-23T02:07:15.043Z,62.49
2018-02-23T02:09:43.386Z,62.23
2018-02-23T02:12:11.675Z,62.62
2018-02-23T02:14:40.021Z,62.29
2018-02-23T02:17:08.367Z,62.55
2018-02-23T02:19:36.779Z,62.66
2018-02-23T02:22:05.147Z,62.53
2018-02-23T02:24:33.533Z,62.70
2018-02-23T02:27:01.900Z,62.67
2018-02-23T02:29:30.176Z,62.85
2018-02-23T02:31:58.515Z,62.81
2018-02-23T02:34:27.607Z,63.08
2018-02-23T02:36:55.971Z,63.09
2018-02-23T02:39:24.338Z,63.06
2018-02-23T02:41:52.688Z,63.08
2018-02-23T02:44:21.089Z,63.19
2018-02-23T02:46:49.414Z,63.44
2018-02-23T02:49:17.775Z,63.25
2018-02-23T02:51:46.941Z,63.53
2018-02-23T02:54:15.257Z,63.81
2018-02-23T02:56:43.579Z,63.72
2018-02-23T02:59:11.911Z,63.76
2018-02-23T03:01:40.301Z,64.12
2018-02-23T03:04:08.645Z,64.32
2018-02-23T03:06:36.952Z,64.13
2018-02-23T03:09:05.287Z,64.20
2018-02-23T03:11:33.634Z,64.30
2018-02-23T03:14:01.968Z,64.40
2018-02-23T03:16:31.058Z,64.75
2018-02-23T03:19:00.139Z,64.94
2018-02-23T03:21:28.471Z,64.89
2018-02-23T03:23:56.808Z,65.02
2018-02-23T03:26:25.142Z,65.23
2018-02-23T03:28:53.470Z,65.31
2018-02-23T03:31:22.564Z,66.32
2018-02-23T03:33:51.624Z,68.81
2018-02-23T03:36:19.972Z,64.78
2018-02-23T03:38:48.307Z,65.06
2018-02-23T03:41:17.394Z,65.16
2018-02-23T03:43:46.478Z,65.40
2018-02-23T03:46:14.882Z,65.60
2018-02-23T03:48:43.983Z,65.72
2018-02-23T03:51:12.326Z,65.94
2018-02-23T03:53:40.644Z,66.07
2018-02-23T03:56:09.010Z,66.21
2018-02-23T03:58:38.096Z,66.19
2018-02-23T04:01:07.242Z,66.11
2018-02-23T04:03:35.612Z,66.26
2018-02-23T04:06:03.915Z,66.53
2018-02-23T04:08:32.279Z,66.64
2018-02-23T04:11:00.628Z,66.84
2018-02-23T04:13:28.968Z,67.08
2018-02-23T04:15:57.298Z,67.13
2018-02-23T04:18:25.651Z,67.29
2018-02-23T04:20:54.029Z,67.43
2018-02-23T04:23:22.413Z,67.38
2018-02-23T04:25:51.469Z,67.19
2018-02-23T04:28:19.831Z,67.45
2018-02-23T04:30:48.169Z,67.79
2018-02-23T04:33:16.510Z,67.93
2018-02-23T04:35:45.618Z,67.91
2018-02-23T04:38:13.935Z,67.80
2018-02-23T04:40:42.298Z,68.18
2018-02-23T04:43:10.626Z,68.16
2018-02-23T04:45:38.950Z,68.28
2018-02-23T04:48:07.330Z,68.49
2018-02-23T04:50:35.674Z,68.49
2018-02-23T04:53:04.843Z,68.86
2018-02-23T04:55:33.205Z,68.89
2018-02-23T04:58:01.499Z,69.00
2018-02-23T05:00:29.873Z,68.94
2018-02-23T05:02:58.198Z,69.24
2018-02-23T05:05:26.526Z,68.92
2018-02-23T05:07:54.855Z,68.67
2018-02-23T05:10:23.170Z,68.88
2018-02-23T05:12:51.502Z,69.10
2018-02-23T05:15:20.609Z,69.03
2018-02-23T05:17:48.934Z,69.19
2018-02-23T05:20:17.347Z,69.01
2018-02-23T05:22:45.680Z,69.35
2018-02-23T05:25:13.980Z,69.27
2018-02-23T05:27:42.358Z,69.12
2018-02-23T05:30:10.699Z,69.17
2018-02-23T05:32:39.072Z,69.47
2018-02-23T05:35:07.363Z,69.58
2018-02-23T05:37:35.675Z,69.70
2018-02-23T05:40:04.002Z,69.86
2018-02-23T05:42:32.401Z,69.97
2018-02-23T05:45:00.738Z,70.08
2018-02-23T05:47:29.054Z,69.70
2018-02-23T05:49:57.388Z,69.95
2018-02-23T05:52:25.698Z,70.02
2018-02-23T05:54:54.006Z,70.00
2018-02-23T05:57:22.308Z,69.81
2018-02-23T05:59:51.395Z,70.07
2018-02-23T06:02:20.475Z,70.18
2018-02-23T06:04:48.847Z,70.17
2018-02-23T06:07:17.218Z,70.24
2018-02-23T06:09:45.568Z,70.08
2018-02-23T06:12:13.924Z,70.18
2018-02-23T06:14:42.252Z,70.23
2018-02-23T06:17:16.202Z,70.03
2018-02-23T06:19:50.041Z,70.29
2018-02-23T06:22:18.362Z,70.06
2018-02-23T06:24:46.679Z,70.00
2018-02-23T06:27:15.007Z,70.03
2018-02-23T06:29:43.390Z,70.04
2018-02-23T06:32:11.739Z,69.96
2018-02-23T06:34:40.119Z,70.06
2018-02-23T06:37:08.537Z,70.23
2018-02-23T06:39:36.977Z,70.06
2018-02-23T06:42:05.338Z,70.13
2018-02-23T06:44:33.652Z,69.85
2018-02-23T06:47:07.422Z,70.04
2018-02-23T06:49:35.743Z,70.25
2018-02-23T06:52:04.095Z,69.75
2018-02-23T06:54:33.010Z,69.70
2018-02-23T06:57:01.289Z,69.71
2018-02-23T06:59:30.385Z,69.60
2018-02-23T07:01:58.734Z,70.12
2018-02-23T07:04:27.081Z,69.82
2018-02-23T07:06:55.431Z,69.75
2018-02-23T07:09:23.789Z,69.61
2018-02-23T07:11:52.960Z,69.35
2018-02-23T07:14:21.266Z,69.67
2018-02-23T07:16:49.600Z,69.54
2018-02-23T07:19:17.929Z,69.18
2018-02-23T07:21:47.082Z,69.20
2018-02-23T07:24:15.418Z,69.17
2018-02-23T07:26:44.511Z,69.13
2018-02-23T07:29:12.862Z,68.98
2018-02-23T07:31:41.212Z,68.64
2018-02-23T07:34:09.555Z,68.65
2018-02-23T07:36:37.983Z,68.38
2018-02-23T07:39:06.335Z,68.77
2018-02-23T07:44:09.261Z,67.73
2018-02-23T07:46:37.600Z,68.14
2018-02-23T07:49:05.927Z,67.92
2018-02-23T07:51:34.238Z,67.70
2018-02-23T07:54:03.315Z,67.55
2018-02-23T07:56:32.408Z,67.56
2018-02-23T07:59:01.454Z,67.37
2018-02-23T08:01:29.812Z,66.86
2018-02-23T08:03:58.118Z,66.80
2018-02-23T08:06:26.455Z,66.57
2018-02-23T08:08:54.852Z,66.56
2018-02-23T08:11:23.188Z,66.72
2018-02-23T08:13:51.485Z,66.34
2018-02-23T08:16:20.612Z,66.22
2018-02-23T08:18:48.954Z,66.01
2018-02-23T08:21:18.096Z,65.71
2018-02-23T08:23:46.461Z,65.55
2018-02-23T08:26:14.860Z,65.62
2018-02-23T08:28:43.212Z,64.88
2018-02-23T08:31:11.621Z,64.76
2018-02-23T08:33:40.012Z,64.22
2018-02-23T08:36:08.412Z,64.48
2018-02-23T08:38:37.553Z,63.99
2018-02-23T08:41:05.881Z,63.60
2018-02-23T08:43:34.184Z,63.90
2018-02-23T08:46:02.488Z,63.43
2018-02-23T08:48:30.828Z,62.92
2018-02-23T08:50:59.127Z,62.52
2018-02-23T08:53:27.518Z,62.22
2018-02-23T08:55:55.866Z,62.20
2018-02-23T08:58:24.222Z,61.98
2018-02-23T09:00:53.313Z,61.94
2018-02-23T09:03:21.729Z,61.44
2018-02-23T09:05:50.111Z,61.62
2018-02-23T09:08:18.577Z,61.13
2018-02-23T09:10:46.972Z,60.96
2018-02-23T09:13:15.336Z,60.93
2018-02-23T09:15:43.689Z,60.54
2018-02-23T09:18:12.788Z,60.03
2018-02-23T09:20:41.908Z,59.29
2018-02-23T09:23:10.263Z,59.31
2018-02-23T09:25:39.391Z,59.30
2018-02-23T09:28:07.767Z,59.01
2018-02-23T09:30:36.136Z,59.24
2018-02-23T09:33:04.538Z,58.41
2018-02-23T09:35:32.914Z,58.42
2018-02-23T09:38:01.285Z,58.01
2018-02-23T09:40:29.642Z,58.38
2018-02-23T09:42:57.972Z,58.04
2018-02-23T09:45:26.274Z,57.27
2018-02-23T09:47:55.333Z,57.40
2018-02-23T09:50:23.671Z,57.05
2018-02-23T09:52:52.009Z,57.10
2018-02-23T09:55:20.400Z,56.43
2018-02-23T09:57:49.516Z,56.14
2018-02-23T10:00:18.637Z,56.18
2018-02-23T10:02:46.974Z,55.50
2018-02-23T10:05:16.143Z,55.99
2018-02-23T10:07:44.547Z,56.03
2018-02-23T10:10:13.736Z,55.43
2018-02-23T10:12:42.075Z,56.02
2018-02-23T10:15:10.423Z,55.38
2018-02-23T10:17:38.774Z,54.35
2018-02-23T10:20:07.131Z,54.84
2018-02-23T10:22:35.474Z,54.56
2018-02-23T10:25:03.810Z,54.13
2018-02-23T10:27:33.005Z,54.00
2018-02-23T10:30:01.344Z,54.20
2018-02-23T10:32:29.772Z,53.91
2018-02-23T10:34:58.193Z,54.03
2018-02-23T10:37:26.580Z,53.46
2018-02-23T10:39:55.718Z,53.05
2018-02-23T10:42:24.818Z,52.33
2018-02-23T10:44:53.907Z,52.19
2018-02-23T10:47:23.008Z,52.60
2018-02-23T10:49:52.163Z,51.98
2018-02-23T10:52:20.538Z,52.41
2018-02-23T10:54:48.948Z,52.82
2018-02-23T10:57:17.341Z,52.04
2018-02-23T10:59:46.479Z,51.67
2018-02-23T11:02:14.819Z,51.95
2018-02-23T11:04:44.027Z,50.36
2018-02-23T11:07:12.494Z,51.02
2018-02-23T11:09:41.683Z,49.88
2018-02-23T11:12:10.871Z,46.13
2018-02-23T11:14:39.321Z,45.44
2018-02-23T11:17:07.782Z,45.14
2018-02-23T11:19:36.173Z,44.30
2018-02-23T11:22:04.517Z,44.52
2018-02-23T11:24:32.941Z,43.28
2018-02-23T11:27:01.382Z,44.56
2018-02-23T11:29:29.845Z,44.49
2018-02-23T11:31:59.074Z,44.81
2018-02-23T11:34:27.491Z,42.95
2018-02-23T11:36:55.904Z,43.98
2018-02-23T11:39:25.094Z,43.35
2018-02-23T11:41:54.299Z,41.64
2018-02-23T11:44:23.437Z,41.60
2018-02-23T11:46:51.805Z,42.31
2018-02-23T11:49:20.247Z,41.38
2018-02-23T11:51:49.452Z,40.39
2018-02-23T11:54:18.714Z,41.74
2018-02-23T11:56:47.115Z,40.90
2018-02-23T11:59:15.645Z,42.81
2018-02-23T12:01:44.088Z,40.99
2018-02-23T12:04:13.333Z,39.65
2018-02-23T12:06:41.812Z,38.91
2018-02-23T12:09:10.343Z,39.76
2018-02-23T12:11:38.880Z,38.91
2018-02-23T12:14:07.405Z,39.93
2018-02-23T12:16:36.748Z,41.03
2018-02-23T12:19:07.222Z,38.40
2018-02-23T12:21:35.743Z,39.13
2018-02-23T12:24:04.173Z,39.99
2018-02-23T12:26:32.636Z,39.80
2018-02-23T12:29:01.080Z,39.44
2018-02-23T12:31:29.501Z,39.34
2018-02-23T12:33:57.935Z,39.23
2018-02-23T12:36:27.144Z,37.88
2018-02-23T12:38:55.519Z,39.73
2018-02-23T12:41:23.855Z,38.10
2018-02-23T12:43:52.136Z,38.43
2018-02-23T12:46:20.448Z,38.73
2018-02-23T12:48:48.747Z,39.60
2018-02-23T12:51:17.062Z,39.01
2018-02-23T12:53:45.385Z,37.60
2018-02-23T12:56:13.798Z,37.28
2018-02-23T12:58:42.135Z,37.43
2018-02-23T13:01:10.475Z,36.45
2018-02-23T13:03:38.790Z,37.64
2018-02-23T13:06:07.115Z,36.92
2018-02-23T13:08:35.414Z,37.67
2018-02-23T13:11:03.749Z,38.65
2018-02-23T13:13:32.079Z,38.41
2018-02-23T13:16:01.188Z,37.97
2018-02-23T13:18:29.518Z,37.76
2018-02-23T13:20:57.837Z,36.01
2018-02-23T13:23:27.073Z,38.32
2018-02-23T13:25:55.400Z,36.09
2018-02-23T13:28:30.068Z,35.19
2018-02-23T13:30:58.413Z,36.61
2018-02-23T13:33:26.751Z,36.41
2018-02-23T13:35:55.062Z,36.71
2018-02-23T13:38:24.167Z,36.06
2018-02-23T13:40:59.234Z,35.88
2018-02-23T13:43:27.554Z,35.33
2018-02-23T13:45:55.827Z,34.80
2018-02-23T13:48:24.140Z,35.33
2018-02-23T13:50:52.513Z,34.75
2018-02-23T13:53:20.913Z,35.99
2018-02-23T13:55:49.301Z,37.86
2018-02-23T13:58:17.647Z,34.98
2018-02-23T14:00:46.008Z,35.97
2018-02-23T14:03:15.130Z,33.75
2018-02-23T14:05:46.208Z,34.48
2018-02-23T14:08:14.586Z,33.87
2018-02-23T14:10:42.907Z,34.32
2018-02-23T14:13:11.979Z,34.27
2018-02-23T14:15:40.349Z,33.60
2018-02-23T14:18:08.676Z,33.12
2018-02-23T14:20:37.081Z,33.36
2018-02-23T14:23:05.599Z,32.50
2018-02-23T14:25:33.935Z,32.14
2018-02-23T14:28:02.185Z,33.66
2018-02-23T14:30:30.448Z,33.98
2018-02-23T14:33:00.957Z,34.65
2018-02-23T14:35:29.836Z,32.63
2018-02-23T14:37:59.262Z,31.45
2018-02-23T14:40:28.359Z,32.37
2018-02-23T14:42:57.435Z,32.47
2018-02-23T14:45:25.840Z,32.57
2018-02-23T14:47:54.841Z,34.09
2018-02-23T14:50:40.761Z,32.87
2018-02-23T14:53:09.026Z,31.79
2018-02-23T14:55:37.271Z,32.90
2018-02-23T14:58:06.680Z,33.22
2018-02-23T15:00:34.975Z,31.92
2018-02-23T15:03:03.284Z,32.37
2018-02-23T15:05:31.519Z,32.67
2018-02-23T15:07:59.913Z,33.17
2018-02-23T15:10:28.156Z,32.22
2018-02-23T15:12:57.180Z,33.06
2018-02-23T15:15:25.417Z,31.77
2018-02-23T15:17:54.431Z,32.31
2018-02-23T15:20:22.680Z,33.57
2018-02-23T15:22:51.704Z,32.86
2018-02-23T15:25:19.940Z,34.05
2018-02-23T15:27:48.203Z,33.75
2018-02-23T15:30:34.153Z,33.60
2018-02-23T15:33:02.412Z,33.85
2018-02-23T15:35:30.656Z,33.90
2018-02-23T15:37:58.916Z,34.94
2018-02-23T15:40:27.157Z,34.17
2018-02-23T15:42:55.426Z,35.45
2018-02-23T15:45:23.674Z,36.42
2018-02-23T15:47:54.476Z,36.03
2018-02-23T15:53:32.049Z,41.28
2018-02-23T15:56:00.295Z,41.96
2018-02-23T15:58:44.953Z,42.47
2018-02-23T16:01:13.965Z,43.79
2018-02-23T16:03:42.443Z,43.33
2018-02-23T16:06:10.699Z,43.73
2018-02-23T16:08:39.722Z,44.02
2018-02-23T16:11:07.973Z,44.49
2018-02-23T16:13:37.007Z,45.44
2018-02-23T16:16:05.260Z,45.62
2018-02-23T16:18:33.524Z,46.16
2018-02-23T16:21:01.777Z,46.41
2018-02-23T16:23:30.034Z,46.53
2018-02-23T16:25:58.278Z,46.61
2018-02-23T16:28:26.533Z,47.08
2018-02-23T16:30:54.783Z,47.42
2018-02-23T16:33:23.806Z,47.60
2018-02-23T16:35:52.053Z,47.60
2018-02-23T16:38:21.092Z,48.06
2018-02-23T16:40:49.353Z,47.82
2018-02-23T16:43:17.627Z,47.78
2018-02-23T16:45:45.890Z,48.19
2018-02-23T16:48:14.923Z,48.66
2018-02-23T16:50:43.181Z,48.62
2018-02-23T16:53:11.445Z,48.86
2018-02-23T16:55:39.699Z,49.19
2018-02-23T16:58:08.730Z,49.13
2018-02-23T17:00:36.974Z,49.42
2018-02-23T17:03:06.008Z,49.67
2018-02-23T17:05:34.265Z,49.96
2018-02-23T17:08:02.519Z,50.45
2018-02-23T17:10:31.551Z,50.70
2018-02-23T17:12:59.810Z,50.88
2018-02-23T17:15:28.055Z,51.14
2018-02-23T17:17:57.083Z,51.47
2018-02-23T17:20:25.341Z,51.65
2018-02-23T17:22:54.363Z,51.84
2018-02-23T17:25:22.628Z,52.09
2018-02-23T17:27:50.890Z,52.21
2018-02-23T17:30:19.142Z,52.51
2018-02-23T17:32:48.171Z,52.60
2018-02-23T17:35:16.427Z,52.80
2018-02-23T17:37:44.690Z,52.75
2018-02-23T17:40:13.711Z,53.09
2018-02-23T17:42:41.974Z,53.35
2018-02-23T17:45:10.232Z,53.63
2018-02-23T17:47:39.266Z,53.61
2018-02-23T17:50:07.523Z,54.18
2018-02-23T17:52:35.783Z,53.87
2018-02-23T17:55:04.894Z,55.83
2018-02-23T17:57:33.150Z,55.38
2018-02-23T18:00:02.166Z,55.50
2018-02-23T18:02:30.428Z,55.79
2018-02-23T18:04:59.453Z,56.18
2018-02-23T18:07:27.707Z,56.47
2018-02-23T18:09:55.957Z,55.83
2018-02-23T18:12:24.990Z,55.69
2018-02-23T18:14:53.241Z,55.81
2018-02-23T18:17:22.272Z,55.61
2018-02-23T18:19:50.523Z,55.30
2018-02-23T18:22:18.792Z,55.63
2018-02-23T18:24:47.051Z,55.74
2018-02-23T18:27:16.069Z,55.92
2018-02-23T18:29:44.330Z,55.87
2018-02-23T18:32:13.350Z,55.82
2018-02-23T18:34:41.605Z,55.89
2018-02-23T18:37:09.854Z,55.93
2018-02-23T18:39:38.114Z,55.92
2018-02-23T18:42:06.372Z,56.39
2018-02-23T18:44:34.631Z,56.50
2018-02-23T18:47:02.883Z,56.56
2018-02-23T18:49:31.151Z,56.61
2018-02-23T18:52:00.167Z,56.86
2018-02-23T18:54:28.421Z,56.75
2018-02-23T18:56:57.444Z,56.99
2018-02-23T18:59:25.707Z,57.27
2018-02-23T19:01:53.949Z,56.92
2018-02-23T19:04:22.984Z,57.13
2018-02-23T19:06:51.237Z,57.34
2018-02-23T19:09:20.267Z,57.49
2018-02-23T19:11:48.522Z,57.81
2018-02-23T19:14:16.781Z,57.72
2018-02-23T19:16:45.039Z,57.74
2018-02-23T19:19:14.121Z,58.17
2018-02-23T19:21:42.323Z,57.93
2018-02-23T19:24:10.598Z,57.68
2018-02-23T19:26:39.619Z,57.56
2018-02-23T19:29:07.874Z,57.73
2018-02-23T19:31:36.127Z,57.82
2018-02-23T19:34:05.197Z,57.56
2018-02-23T19:36:33.410Z,57.92
2018-02-23T19:39:02.449Z,57.90
2018-02-23T19:41:30.695Z,58.42
2018-02-23T19:43:58.955Z,58.53
2018-02-23T19:46:27.975Z,58.33
2018-02-23T19:48:56.237Z,58.49
2018-02-23T19:51:24.485Z,58.26
2018-02-23T19:53:53.502Z,58.23
2018-02-23T19:56:21.762Z,58.49
2018-02-23T19:58:50.778Z,58.79
2018-02-23T20:01:19.028Z,58.63
2018-02-23T20:03:48.045Z,58.51
2018-02-23T20:06:16.314Z,58.67
2018-02-23T20:08:45.325Z,59.20
2018-02-23T20:11:13.578Z,59.38
2018-02-23T20:13:41.825Z,58.98
2018-02-23T20:16:10.103Z,59.00
2018-02-23T20:18:38.363Z,59.17
2018-02-23T20:21:06.619Z,58.94
2018-02-23T20:23:34.873Z,58.95
2018-02-23T20:26:03.159Z,59.07
2018-02-23T20:28:31.408Z,58.70
2018-02-23T20:31:00.437Z,59.00
2018-02-23T20:33:28.685Z,59.12
2018-02-23T20:35:56.937Z,59.15
2018-02-23T20:38:25.955Z,58.86
2018-02-23T20:40:54.201Z,58.91
2018-02-23T20:43:23.222Z,59.08
2018-02-23T20:45:51.478Z,59.38
2018-02-23T20:48:20.504Z,59.24
2018-02-23T20:50:48.748Z,59.25
2018-02-23T20:53:17.775Z,59.53
2018-02-23T20:55:46.024Z,59.58
2018-02-23T20:58:15.051Z,59.61
2018-02-23T21:00:43.306Z,59.75
2018-02-23T21:03:11.566Z,59.64
2018-02-23T21:05:40.589Z,59.48
2018-02-23T21:08:08.860Z,59.55
2018-02-23T21:10:37.111Z,59.71
2018-02-23T21:13:06.134Z,59.61
2018-02-23T21:15:34.381Z,59.82
2018-02-23T21:18:03.407Z,59.77
2018-02-23T21:20:31.654Z,59.83
2018-02-23T21:22:59.916Z,59.85
2018-02-23T21:25:28.940Z,59.98
2018-02-23T21:27:57.198Z,60.21
2018-02-23T21:30:26.224Z,60.24
2018-02-23T21:32:54.488Z,60.25
2018-02-23T21:35:22.745Z,60.48
2018-02-23T21:37:50.991Z,60.54
2018-02-23T21:40:19.253Z,60.71
2018-02-23T21:42:47.498Z,60.93
2018-02-23T21:45:15.756Z,60.71
2018-02-23T21:47:44.028Z,61.04
2018-02-23T21:50:13.036Z,60.77
2018-02-23T21:52:41.292Z,60.98
2018-02-23T21:55:09.555Z,61.20
2018-02-23T21:57:38.570Z,61.16
2018-02-23T22:00:06.835Z,61.52
2018-02-23T22:02:35.095Z,61.61
2018-02-23T22:05:04.118Z,61.45
2018-02-23T22:07:32.373Z,61.65
2018-02-23T22:10:01.399Z,62.13
2018-02-23T22:12:29.651Z,61.99
2018-02-23T22:14:57.906Z,61.93
2018-02-23T22:17:26.923Z,62.20
2018-02-23T22:19:55.190Z,62.23
2018-02-23T22:22:24.204Z,61.92
2018-02-23T22:24:52.472Z,62.15
2018-02-23T22:27:20.713Z,61.89
2018-02-23T22:29:49.738Z,62.47
2018-02-23T22:32:17.993Z,62.23
2018-02-23T22:34:47.014Z,62.26
2018-02-23T22:37:15.269Z,62.22
2018-02-23T22:39:43.531Z,62.29
2018-02-23T22:42:12.555Z,62.38
2018-02-23T22:44:40.818Z,62.70
2018-02-23T22:47:09.077Z,62.58
2018-02-23T22:49:38.086Z,62.66
2018-02-23T22:52:06.350Z,62.93
2018-02-23T22:54:35.360Z,63.06
2018-02-23T22:57:03.617Z,63.31
2018-02-23T22:59:32.650Z,62.97
2018-02-23T23:02:00.916Z,63.15
2018-02-23T23:04:29.179Z,62.86
2018-02-23T23:06:57.437Z,63.32
2018-02-23T23:09:26.454Z,63.30
2018-02-23T23:11:54.713Z,63.43
2018-02-23T23:14:23.728Z,63.17
2018-02-23T23:16:51.982Z,63.24
2018-02-23T23:19:21.001Z,63.40
2018-02-23T23:21:49.272Z,63.41
2018-02-23T23:24:17.509Z,63.42
2018-02-23T23:26:46.530Z,63.65
2018-02-23T23:29:14.791Z,63.50
2018-02-23T23:31:43.808Z,64.08
2018-02-23T23:34:12.059Z,63.79
2018-02-23T23:36:41.080Z,63.88
2018-02-23T23:39:09.343Z,64.09
2018-02-23T23:41:37.591Z,63.95
2018-02-23T23:44:06.614Z,64.29
2018-02-23T23:46:34.862Z,64.56
2018-02-23T23:49:04.639Z,64.63
2018-02-23T23:51:32.889Z,64.54
2018-02-23T23:54:01.150Z,64.53
2018-02-23T23:56:29.398Z,64.95
2018-02-23T23:58:58.421Z,64.93
